Ana Sayfa
METAR-TAF:

METAR-TAF

Havaalanları :

Ljungbyhed, İsveç

Enlem: 56-04N, Boylam: 013-12E, yükseklik: 43 m

Güncel hava durumu gözlemi

Rapor saat 03:20 UTC de 30 dakika önce yapıldı.
Rüzgar doğu/güneydoğudan 4 kt
Sıcaklık -1°C
Nem 93%
Basınç 1001 hPa

METAR: ESTL 280320Z AUTO 11004KT //// R29L///// NCD M01/M02 Q1001

Saat: 04:50 (03:50 UTC)

Tahmin

Rapor saat 06:02 UTC de 21 saat ve 48 dakika önce yapıldı.
Ayın 27'si saat 07 UTC'den ayın 27'si saat 15 UTC'ye kadar geçerli Tahmin
Rüzgar değişken yönden 2 kt
Görüş mesafesi 10 km veya daha fazla
2500 ft yükseklikte parçalı bulutlu

TAF: ESTL 270602Z 2707/2715 VRB02KT 9999 SCT025

4.000'den fazla havaalanı için hava durumu gözlemleri ve tahminleri (METAR ve TAF raporları).

Kullanılabilir istasyonlar harita üzerinde sarı ve kırmızı noktalarla gösterilir.

İstasyonun adını görmek için fareyi noktanın üzerinde gezdirin.

Sonrasında hava gözlem ve tahminlerini görmek için tıklayın.

Haritayı değiştirmek için: yaklaştırmak için siyah artı işaretli yeşil düğmeye ve uzaklaştırmak için de eksi işaretli düğmeye hızla tıklayın; bitişik haritalar için yeşil okları kullanın.


METAR-TAF: